Terminal Aerodrome Forecast
Issued by NWS Charleston, WV

Home | Current Version | Previous Version | Text Only | Print | Product List | Glossary On
Versions: 1 2 3 4 5 6 7 8 9 10 11 12 13 14 15 16 17 18 19 20 21 22 23 24
000
FTUS41 KRLX 281400 AAA
TAFBKW
TAF AMD
KBKW 281436Z 2815/2912 29012G19KT P6SM BKN035
     FM281600 30013G19KT P6SM BKN040
     FM282000 31012G18KT P6SM VCSH BKN040
     FM282300 32008KT P6SM BKN080
     FM290800 VRB03KT P6SM SCT040=

USA.gov is the U.S. government's official web portal to all federal, state and local government web resources and services.